Cebu, Philippines

8:40 AM PHT on August 31, 2015 (GMT +0800)
Best Western Plus Lex Cebu | | Change Station
CLOSE
Current Station
Personal Weather Station
Location: Cebu, Cebu
Elevation: 157 ft
Nearby Weather Stations

Elev 157 ft 10.32 °N, 123.89 °E | Updated 1 second ago

Scattered Clouds
Scattered Clouds
84.1 °F
Feels Like 95 °F
N
0.0
Wind Variable Wind from SSW
Gusts 1.0 mph

Today
High -- | Low -- °F
--% Chance of Precip.
Yesterday
High -- | Low -- °F
Precip. -- in
5:34 AM 5:54 PM
Full, 98% visible
Pressure 29.89 in
Visibility 6.2 miles
Clouds Few 2000 ft
Scattered Clouds 25000 ft
Heat Index 95 °F
Dew Point 78 °F
Humidity 82%
Rainfall 0.00 in
Snow Depth Not available.
UV 0 out of 12
Pollen Not available.
Air Quality Not available.
Flu Activity Not available.
METAR RPVM 310000Z 06004KT 9999 FEW020 SCT250 27/24 Q1012 RETS NOSIG RMK A2988
Pressure 29.89 in
Visibility 6.2 miles
Clouds Few 2000 ft
Scattered Clouds 25000 ft
Heat Index 95 °F
Dew Point 78 °F
Humidity 82%
Rainfall 0.00 in
Snow Depth Not available.
UV 0 out of 12
Pollen Not available.
Air Quality Not available.
Flu Activity Not available.
METAR RPVM 310000Z 06004KT 9999 FEW020 SCT250 27/24 Q1012 RETS NOSIG RMK A2988

10-Day Weather Forecast

×

Almanac

Astronomy

Aug. 31, 2015 Rise Set
Actual Time
Civil Twilight
Nautical Twilight
Astronomical Twilight
Moon
Length of Visible Light
Length of Day
Tomorrow will be .
, % of the Moon is Illuminated

Today's Extremes

Country Highs Country Lows

Community

WunderPhotos

Upload Photos

1,851,116 photos uploaded!

WunderBlogs® & News

Nearby

Air Quality

  Air Quality AQ Index Pollutant
Not available.

Snow Depth

Station Depth Elevation

Earthquake Activity

City Distance Mag. Time & Date
Minimum magnitude displayed is 2.5.

Coastal Water Temperatures

Place Temperature

Stations

Nearby Weather Stations

Station Location Temp. Windchill Dew Point Humidity Wind Precip. Elev Updated Type